Accueil
METAR-TAF:

METAR-TAF

Aéroports :

Plaisance, Italie

latitude: 44-55N, longitude: 009-44E, altitude: 134 m

Observation

Le bulletin a été fait il y a 8 heures et 4 minutes, à 17:55 UTC
Vent 7 kt de nord/nord-ouest
Température 33°C
Humidité 44%
Pression 1012 hPa
Visibilité 10 km ou plus
pas de nuages en-dessous de 1500 mètres et pas de cumulonimbus.

METAR: LIMS 231755Z 33007KT CAVOK 33/19 Q1012 RMK BKN BKN200 VIS MIN 9999 WIND THR30 33006KT BLU

Heure: 03:59 (01:59 UTC)

Prévision

Le bulletin a été fait il y a 8 heures et 59 minutes, à 17:00 UTC
Prévision valable du 23 à 18 UTC au 24 à 03 UTC
Vent 5 kt de nord
Visibilité 10 km ou plus
pas de nuages en-dessous de 1500 mètres et pas de cumulonimbus.
Evoluant progressivement
du 23 à 18 UTC au 23 à 20 UTC
Vent 10 kt de sud/sud-ouest

TAF: LIMS 231700Z 2318/2403 35005KT CAVOK BECMG 2318/2320 20010KT

Observations et prévisions météorologiques de plus de 4000 aéroports (messages METAR et TAF).

Les stations disponibles sont représentées par des disques jaunes et rouges sur la carte.

Passer la souris dessus pour voir le nom de la station.

Cliquer dessus pour voir les observations et prévisions météorologiques.

Pour changer de carte: cliquez sur les boutons verts avec une croix noire pour zoomer, sur le bouton vert avec un tiret pour effectuer un zoom arrière, ou sur les flèches vertes pour les cartes adjacentes.


METAR-TAF: